createdAt,value
2017-12-16T00:00:00.975Z," 3.00"
2017-12-16T00:04:56.663Z," 2.97"
2017-12-16T00:09:52.141Z," 2.92"
2017-12-16T00:14:48.083Z," 2.80"
2017-12-16T00:19:43.708Z," 2.74"
2017-12-16T00:24:40.379Z," 2.83"
2017-12-16T00:29:35.557Z," 2.83"
2017-12-16T00:34:31.715Z," 2.89"
2017-12-16T00:39:27.716Z," 3.08"
2017-12-16T00:44:24.189Z," 3.04"
2017-12-16T00:49:19.711Z," 3.26"
2017-12-16T00:54:18.210Z," 3.31"
2017-12-16T00:59:14.074Z," 3.31"
2017-12-16T01:04:09.795Z," 3.07"
2017-12-16T01:09:06.499Z," 3.29"
2017-12-16T01:14:01.676Z," 3.34"
2017-12-16T01:18:57.399Z," 3.25"
2017-12-16T01:23:53.388Z," 3.34"
2017-12-16T01:28:49.096Z," 3.40"
2017-12-16T01:33:45.643Z," 3.37"
2017-12-16T01:38:42.506Z," 3.53"
2017-12-16T01:43:37.697Z," 3.50"
2017-12-16T01:48:34.292Z," 3.41"
2017-12-16T01:53:29.694Z," 3.22"
2017-12-16T01:58:25.498Z," 3.37"
2017-12-16T02:03:21.021Z," 3.23"
2017-12-16T02:08:16.901Z," 3.32"
2017-12-16T02:13:12.456Z," 3.40"
2017-12-16T02:18:08.318Z," 3.62"
2017-12-16T02:23:05.009Z," 3.51"
2017-12-16T02:28:00.396Z," 3.58"
2017-12-16T02:32:56.125Z," 3.36"
2017-12-16T02:37:51.939Z," 3.73"
2017-12-16T02:42:47.655Z," 3.66"
2017-12-16T02:47:44.154Z," 3.68"
2017-12-16T02:52:39.696Z," 3.73"
2017-12-16T02:57:35.496Z," 3.51"
2017-12-16T03:02:32.096Z," 3.56"
2017-12-16T03:07:28.478Z," 3.58"
2017-12-16T03:12:23.893Z," 3.63"
2017-12-16T03:17:19.651Z," 3.56"
2017-12-16T03:22:15.195Z," 3.56"
2017-12-16T03:27:11.679Z," 3.70"
2017-12-16T03:32:07.512Z," 3.55"
2017-12-16T03:37:03.758Z," 3.56"
2017-12-16T03:41:59.327Z," 3.59"
2017-12-16T03:46:54.853Z," 3.66"
2017-12-16T03:51:52.271Z," 3.65"
2017-12-16T03:56:48.799Z," 3.59"
2017-12-16T04:01:45.265Z," 3.68"
2017-12-16T04:06:40.798Z," 3.59"
2017-12-16T04:11:37.392Z," 3.63"
2017-12-16T04:16:32.704Z," 3.65"
2017-12-16T04:21:29.025Z," 3.70"
2017-12-16T04:26:24.770Z," 3.65"
2017-12-16T04:31:20.528Z," 3.70"
2017-12-16T04:36:17.124Z," 3.77"
2017-12-16T04:41:13.202Z," 3.69"
2017-12-16T04:46:09.864Z," 3.84"
2017-12-16T04:51:06.954Z," 3.68"
2017-12-16T04:56:04.183Z," 3.69"
2017-12-16T05:01:00.489Z," 3.68"
2017-12-16T05:05:55.862Z," 3.69"
2017-12-16T05:10:51.609Z," 3.62"
2017-12-16T05:15:47.291Z," 3.65"
2017-12-16T05:20:44.069Z," 3.53"
2017-12-16T05:25:40.131Z," 3.34"
2017-12-16T05:30:36.203Z," 3.14"
2017-12-16T05:35:31.763Z," 3.36"
2017-12-16T05:40:27.417Z," 3.44"
2017-12-16T05:45:23.288Z," 3.34"
2017-12-16T05:50:19.254Z," 3.42"
2017-12-16T05:55:14.695Z," 3.44"
2017-12-16T06:00:09.915Z," 3.50"
2017-12-16T06:05:06.727Z," 3.51"
2017-12-16T06:10:02.076Z," 3.48"
2017-12-16T06:14:58.866Z," 3.56"
2017-12-16T06:19:54.270Z," 3.34"
2017-12-16T06:24:49.810Z," 3.48"
2017-12-16T06:29:46.598Z," 3.50"
2017-12-16T06:34:42.053Z," 3.36"
2017-12-16T06:39:38.295Z," 3.40"
2017-12-16T06:44:33.840Z," 3.26"
2017-12-16T06:49:29.379Z," 3.21"
2017-12-16T06:54:25.023Z," 3.13"
2017-12-16T06:59:20.675Z," 2.92"
2017-12-16T07:04:16.548Z," 3.01"
2017-12-16T07:09:12.286Z," 2.93"
2017-12-16T07:14:08.775Z," 2.85"
2017-12-16T07:19:04.876Z," 2.85"
2017-12-16T07:24:00.363Z," 2.90"
2017-12-16T07:28:57.066Z," 2.89"
2017-12-16T07:33:52.571Z," 2.89"
2017-12-16T07:38:48.041Z," 2.89"
2017-12-16T07:43:43.605Z," 2.93"
2017-12-16T07:48:39.124Z," 2.92"
2017-12-16T07:53:35.044Z," 2.89"
2017-12-16T07:58:32.592Z," 2.87"
2017-12-16T08:03:29.066Z," 2.93"
2017-12-16T08:08:25.686Z," 3.07"
2017-12-16T08:13:22.322Z," 3.08"
2017-12-16T08:18:17.710Z," 3.07"
2017-12-16T08:23:13.442Z," 3.19"
2017-12-16T08:28:09.499Z," 3.34"
2017-12-16T08:33:05.304Z," 3.32"
2017-12-16T08:38:01.123Z," 3.45"
2017-12-16T08:42:57.174Z," 3.56"
2017-12-16T08:47:53.764Z," 3.81"
2017-12-16T08:52:49.428Z," 3.76"
2017-12-16T08:57:45.012Z," 3.81"
2017-12-16T09:02:40.802Z," 3.94"
2017-12-16T09:07:38.346Z," 4.26"
2017-12-16T09:12:34.108Z," 4.59"
2017-12-16T09:17:29.990Z," 4.62"
2017-12-16T09:22:27.033Z," 4.80"
2017-12-16T09:27:22.961Z," 4.87"
2017-12-16T09:32:18.354Z," 5.12"
2017-12-16T09:37:15.108Z," 5.17"
2017-12-16T09:42:11.391Z," 5.23"
2017-12-16T09:47:08.323Z," 5.44"
2017-12-16T09:52:04.309Z," 5.64"
2017-12-16T09:57:01.056Z," 6.17"
2017-12-16T10:01:58.495Z," 6.54"
2017-12-16T10:06:54.353Z," 6.27"
2017-12-16T10:11:51.103Z," 5.72"
2017-12-16T10:16:46.131Z," 5.72"
2017-12-16T10:21:41.742Z," 5.66"
2017-12-16T10:26:38.248Z," 5.46"
2017-12-16T10:31:33.938Z," 5.62"
2017-12-16T10:36:30.540Z," 5.66"
2017-12-16T10:41:27.000Z," 5.72"
2017-12-16T10:46:22.604Z," 5.57"
2017-12-16T10:51:18.848Z," 5.69"
2017-12-16T10:56:14.862Z," 5.61"
2017-12-16T11:01:11.546Z," 5.57"
2017-12-16T11:06:07.012Z," 5.75"
2017-12-16T11:11:04.426Z," 6.26"
2017-12-16T11:16:00.188Z," 6.39"
2017-12-16T11:20:57.486Z," 6.67"
2017-12-16T11:25:53.434Z," 6.75"
2017-12-16T11:30:50.031Z," 6.69"
2017-12-16T11:35:46.568Z," 6.99"
2017-12-16T11:40:43.166Z," 7.15"
2017-12-16T11:45:40.169Z," 7.17"
2017-12-16T11:50:36.122Z," 7.03"
2017-12-16T11:55:31.539Z," 6.82"
2017-12-16T12:00:27.349Z," 6.67"
2017-12-16T12:05:24.061Z," 6.67"
2017-12-16T12:10:19.468Z," 6.63"
2017-12-16T12:15:14.850Z," 6.52"
2017-12-16T12:20:10.762Z," 6.51"
2017-12-16T12:25:07.520Z," 6.38"
2017-12-16T12:30:02.964Z," 6.35"
2017-12-16T12:35:00.252Z," 6.28"
2017-12-16T12:39:55.468Z," 6.30"
2017-12-16T12:44:51.007Z," 6.19"
2017-12-16T12:49:46.873Z," 6.31"
2017-12-16T12:54:42.668Z," 6.17"
2017-12-16T12:59:38.285Z," 6.09"
2017-12-16T13:04:34.633Z," 6.05"
2017-12-16T13:09:31.159Z," 6.04"
2017-12-16T13:14:26.532Z," 6.01"
2017-12-16T13:19:22.272Z," 6.05"
2017-12-16T13:24:18.180Z," 6.08"
2017-12-16T13:29:13.869Z," 6.12"
2017-12-16T13:34:09.994Z," 5.93"
2017-12-16T13:39:05.639Z," 6.02"
2017-12-16T13:44:01.478Z," 6.01"
2017-12-16T13:48:58.289Z," 5.98"
2017-12-16T13:53:54.225Z," 6.01"
2017-12-16T13:58:49.886Z," 5.89"
2017-12-16T14:03:45.624Z," 5.93"
2017-12-16T14:08:42.273Z," 5.91"
2017-12-16T14:13:37.556Z," 5.71"
2017-12-16T14:18:34.186Z," 5.75"
2017-12-16T14:23:29.722Z," 5.73"
2017-12-16T14:28:25.476Z," 5.75"
2017-12-16T14:33:22.821Z," 5.84"
2017-12-16T14:38:18.118Z," 5.87"
2017-12-16T14:43:14.077Z," 5.83"
2017-12-16T14:48:10.759Z," 5.75"
2017-12-16T14:53:07.880Z," 5.72"
2017-12-16T14:58:02.970Z," 5.82"
2017-12-16T15:02:58.914Z," 5.71"
2017-12-16T15:07:54.669Z," 5.71"
2017-12-16T15:12:50.573Z," 5.65"
2017-12-16T15:17:47.240Z," 5.69"
2017-12-16T15:22:42.704Z," 5.72"
2017-12-16T15:27:38.456Z," 5.68"
2017-12-16T15:32:34.224Z," 5.50"
2017-12-16T15:37:30.752Z," 5.61"
2017-12-16T15:42:26.339Z," 5.56"
2017-12-16T15:47:22.435Z," 5.43"
2017-12-16T15:52:19.039Z," 5.50"
2017-12-16T15:57:14.840Z," 5.51"
2017-12-16T16:02:10.675Z," 5.50"
2017-12-16T16:07:06.447Z," 5.44"
2017-12-16T16:12:01.802Z," 5.53"
2017-12-16T16:16:57.436Z," 5.48"
2017-12-16T16:21:54.368Z," 5.46"
2017-12-16T16:26:49.488Z," 5.53"
2017-12-16T16:31:46.600Z," 5.38"
2017-12-16T16:36:43.438Z," 5.36"
2017-12-16T16:41:40.821Z," 5.29"
2017-12-16T16:46:36.168Z," 5.25"
2017-12-16T16:51:33.196Z," 5.14"
2017-12-16T16:56:29.738Z," 4.99"
2017-12-16T17:01:26.025Z," 4.90"
2017-12-16T17:06:22.309Z," 4.90"
2017-12-16T17:11:17.873Z," 4.92"
2017-12-16T17:16:13.516Z," 4.70"
2017-12-16T17:21:09.294Z," 4.56"
2017-12-16T17:26:05.929Z," 4.53"
2017-12-16T17:31:01.252Z," 4.52"
2017-12-16T17:35:57.980Z," 4.50"
2017-12-16T17:40:53.458Z," 4.52"
2017-12-16T17:45:49.363Z," 4.44"
2017-12-16T17:50:46.363Z," 4.62"
2017-12-16T17:55:41.922Z," 4.74"
2017-12-16T18:00:37.482Z," 4.86"
2017-12-16T18:05:33.222Z," 4.70"
2017-12-16T18:10:29.040Z," 4.60"
2017-12-16T18:15:24.982Z," 4.62"
2017-12-16T18:20:20.931Z," 4.77"
2017-12-16T18:25:16.274Z," 4.71"
2017-12-16T18:30:12.519Z," 4.73"
2017-12-16T18:35:09.159Z," 4.87"
2017-12-16T18:40:05.366Z," 4.68"
2017-12-16T18:45:02.226Z," 4.71"
2017-12-16T18:49:57.614Z," 4.75"
2017-12-16T18:54:54.674Z," 4.71"
2017-12-16T18:59:50.166Z," 4.77"
2017-12-16T19:04:46.256Z," 4.68"
2017-12-16T19:09:42.936Z," 4.67"
2017-12-16T19:14:38.431Z," 4.53"
2017-12-16T19:19:35.161Z," 4.60"
2017-12-16T19:24:30.732Z," 4.40"
2017-12-16T19:29:27.358Z," 4.40"
2017-12-16T19:34:22.938Z," 4.45"
2017-12-16T19:39:18.541Z," 4.40"
2017-12-16T19:44:14.044Z," 4.28"
2017-12-16T19:49:10.249Z," 4.20"
2017-12-16T19:54:07.926Z," 4.22"
2017-12-16T19:59:04.223Z," 4.34"
2017-12-16T20:04:00.602Z," 4.40"
2017-12-16T20:08:56.303Z," 4.41"
2017-12-16T20:13:51.951Z," 4.52"
2017-12-16T20:18:49.052Z," 4.22"
2017-12-16T20:23:44.405Z," 4.17"
2017-12-16T20:28:39.836Z," 4.13"
2017-12-16T20:33:35.582Z," 4.17"
2017-12-16T20:38:31.921Z," 3.99"
2017-12-16T20:43:29.327Z," 3.70"
2017-12-16T20:48:24.422Z," 3.80"
2017-12-16T20:53:21.965Z," 3.81"
2017-12-16T20:58:17.355Z," 3.70"
2017-12-16T21:03:12.831Z," 3.77"
2017-12-16T21:08:08.608Z," 3.68"
2017-12-16T21:13:05.318Z," 3.69"
2017-12-16T21:18:03.470Z," 3.81"
2017-12-16T21:22:59.908Z," 3.78"
2017-12-16T21:27:56.260Z," 3.81"
2017-12-16T21:32:52.666Z," 3.84"
2017-12-16T21:37:49.060Z," 3.70"
2017-12-16T21:42:46.187Z," 3.68"
2017-12-16T21:47:41.544Z," 3.60"
2017-12-16T21:52:36.966Z," 3.56"
2017-12-16T21:57:32.724Z," 3.51"
2017-12-16T22:02:29.278Z," 3.53"
2017-12-16T22:07:24.629Z," 3.56"
2017-12-16T22:12:20.181Z," 3.63"
2017-12-16T22:17:15.974Z," 3.69"
2017-12-16T22:22:11.664Z," 3.68"
2017-12-16T22:27:07.540Z," 3.70"
2017-12-16T22:32:03.638Z," 3.77"
2017-12-16T22:36:59.615Z," 3.74"
2017-12-16T22:41:55.297Z," 3.86"
2017-12-16T22:46:52.033Z," 3.80"
2017-12-16T22:51:47.376Z," 3.78"
2017-12-16T22:56:43.010Z," 3.88"
2017-12-16T23:01:39.557Z," 3.98"
2017-12-16T23:06:35.269Z," 3.86"
2017-12-16T23:11:30.837Z," 3.81"
2017-12-16T23:16:27.495Z," 3.70"
2017-12-16T23:21:22.991Z," 3.63"
2017-12-16T23:26:18.161Z," 3.70"
2017-12-16T23:31:14.774Z," 3.66"
2017-12-16T23:36:11.270Z," 3.73"
2017-12-16T23:41:06.569Z," 3.74"
2017-12-16T23:46:02.599Z," 3.86"
2017-12-16T23:50:58.351Z," 4.02"
2017-12-16T23:55:55.135Z," 3.87"
